Time;durP1;ratioP1;P1;durP2;ratioP2;P2;SDS_P1;SDS_P2;PMS_P1;PMS_P2;Temp;Humidity;BMP_temperature;BMP_pressure;BME280_temperature;BME280_humidity;BME280_pressure;Samples;Min_cycle;Max_cycle;Signal;HPM_P1;HPM_P2
2022/07/31 00:00:28;;;;;;;2.45;1.42;;;;;;;;;;5033963;28;20032;-71
2022/07/31 00:02:53;;;;;;;2.08;1.25;;;;;;;;;;5032908;28;20041;-71
2022/07/31 00:05:18;;;;;;;4.72;1.50;;;;;;;;;;5033668;28;20036;-71
2022/07/31 00:07:44;;;;;;;3.47;1.30;;;;;;;;;;5031340;28;20029;-71
2022/07/31 00:10:09;;;;;;;3.67;1.67;;;;;;;;;;5033595;28;20065;-71
2022/07/31 00:12:34;;;;;;;5.88;1.58;;;;;;;;;;5036093;28;20393;-71
2022/07/31 00:15:04;;;;;;;3.28;1.52;;;;;;;;;;5032863;28;20080;-71
2022/07/31 00:17:29;;;;;;;4.13;1.73;;;;;;;;;;5033248;28;20029;-71
2022/07/31 00:19:54;;;;;;;4.60;1.90;;;;;;;;;;5028656;28;20478;-71
2022/07/31 00:22:20;;;;;;;3.97;1.73;;;;;;;;;;5031365;28;20036;-71
2022/07/31 00:24:45;;;;;;;4.00;2.20;;;;;;;;;;5032072;28;20108;-72
2022/07/31 00:27:10;;;;;;;5.82;1.95;;;;;;;;;;5028082;28;20021;-72
2022/07/31 00:29:36;;;;;;;4.50;1.75;;;;;;;;;;5031171;28;20575;-72
2022/07/31 00:32:01;;;;;;;7.97;2.20;;;;;;;;;;5030523;28;20044;-71
2022/07/31 00:34:26;;;;;;;3.88;1.80;;;;;;;;;;5033561;28;20123;-71
2022/07/31 00:36:52;;;;;;;5.20;2.17;;;;;;;;;;5034229;28;20035;-71
2022/07/31 00:39:17;;;;;;;4.45;2.03;;;;;;;;;;5033808;28;20048;-71
2022/07/31 00:41:43;;;;;;;6.28;1.63;;;;;;;;;;5033148;28;20032;-71
2022/07/31 00:44:10;;;;;;;2.75;1.85;;;;;;;;;;5032978;28;20029;-72
2022/07/31 00:46:35;;;;;;;3.20;1.88;;;;;;;;;;5031757;28;20037;-71
2022/07/31 00:49:00;;;;;;;4.50;2.15;;;;;;;;;;5033144;28;20384;-72
2022/07/31 00:51:26;;;;;;;5.00;2.45;;;;;;;;;;5033164;28;20445;-72
2022/07/31 00:53:51;;;;;;;7.43;2.65;;;;;;;;;;5032974;28;20480;-71
2022/07/31 00:56:16;;;;;;;4.50;2.20;;;;;;;;;;5032008;28;20033;-71
2022/07/31 00:58:42;;;;;;;6.88;3.17;;;;;;;;;;5032485;28;20389;-71
2022/07/31 01:01:07;;;;;;;6.50;3.08;;;;;;;;;;5030967;28;20029;-71
2022/07/31 01:03:32;;;;;;;7.28;3.47;;;;;;;;;;5032623;28;20022;-71
2022/07/31 01:05:57;;;;;;;13.20;4.18;;;;;;;;;;5031526;28;20381;-71
2022/07/31 01:08:23;;;;;;;12.57;4.40;;;;;;;;;;5032902;28;20603;-71
2022/07/31 01:10:54;;;;;;;9.32;3.75;;;;;;;;;;5027053;28;20486;-71
2022/07/31 01:13:30;;;;;;;7.78;3.20;;;;;;;;;;5031823;28;20033;-71
2022/07/31 01:15:57;;;;;;;11.35;3.97;;;;;;;;;;5031090;28;20053;-71
2022/07/31 01:18:24;;;;;;;9.38;3.55;;;;;;;;;;5033161;28;20029;-71
2022/07/31 01:20:51;;;;;;;11.57;3.42;;;;;;;;;;5032627;28;20116;-71
2022/07/31 01:23:20;;;;;;;9.25;3.60;;;;;;;;;;5032152;28;20382;-71
2022/07/31 01:25:57;;;;;;;6.95;3.65;;;;;;;;;;5031407;28;20109;-71
2022/07/31 01:28:29;;;;;;;11.05;3.60;;;;;;;;;;5031651;28;20036;-71
2022/07/31 01:30:57;;;;;;;8.30;3.90;;;;;;;;;;5029503;28;20535;-71
2022/07/31 01:33:26;;;;;;;6.43;3.78;;;;;;;;;;5032660;28;20021;-71
2022/07/31 01:35:58;;;;;;;10.10;3.22;;;;;;;;;;5029702;28;20436;-71
2022/07/31 01:38:25;;;;;;;8.75;3.58;;;;;;;;;;5032529;28;20029;-71
2022/07/31 01:40:55;;;;;;;6.93;2.58;;;;;;;;;;5028416;28;20033;-71
2022/07/31 01:43:22;;;;;;;10.35;3.95;;;;;;;;;;5032227;28;20492;-71
2022/07/31 01:45:50;;;;;;;6.72;3.20;;;;;;;;;;5032195;28;20021;-71
2022/07/31 01:48:16;;;;;;;11.40;3.33;;;;;;;;;;5032482;28;20388;-71
2022/07/31 01:50:43;;;;;;;8.38;3.00;;;;;;;;;;5025825;28;20026;-71
2022/07/31 01:53:09;;;;;;;6.13;2.80;;;;;;;;;;5032607;28;20028;-71
2022/07/31 01:55:35;;;;;;;5.70;2.83;;;;;;;;;;5031909;28;20454;-71
2022/07/31 01:58:01;;;;;;;6.22;2.40;;;;;;;;;;5032305;28;20072;-71
2022/07/31 02:00:26;;;;;;;8.05;2.50;;;;;;;;;;5031284;28;20037;-71
2022/07/31 02:02:52;;;;;;;5.63;2.50;;;;;;;;;;5024946;28;20114;-71
2022/07/31 02:05:18;;;;;;;9.75;2.65;;;;;;;;;;5030007;28;20096;-71
2022/07/31 02:07:44;;;;;;;5.35;2.10;;;;;;;;;;5032776;28;20029;-71
2022/07/31 02:10:11;;;;;;;5.57;2.53;;;;;;;;;;5031792;28;20377;-71
2022/07/31 02:12:37;;;;;;;5.50;2.17;;;;;;;;;;5032729;28;20017;-71
2022/07/31 02:15:05;;;;;;;7.07;2.65;;;;;;;;;;5031383;28;20604;-71
2022/07/31 02:17:30;;;;;;;4.15;1.77;;;;;;;;;;5031705;28;20037;-71
2022/07/31 02:19:57;;;;;;;7.40;2.40;;;;;;;;;;5030798;28;20025;-71
2022/07/31 02:22:23;;;;;;;4.45;2.08;;;;;;;;;;5024003;28;20026;-71
2022/07/31 02:24:49;;;;;;;4.88;2.08;;;;;;;;;;5031843;28;20021;-71
2022/07/31 02:27:14;;;;;;;6.45;2.00;;;;;;;;;;5034385;28;20028;-71
2022/07/31 02:29:40;;;;;;;4.60;2.10;;;;;;;;;;5034758;28;20037;-71
2022/07/31 02:32:07;;;;;;;6.45;2.00;;;;;;;;;;5024585;28;20505;-71
2022/07/31 02:34:33;;;;;;;4.95;2.20;;;;;;;;;;5029680;28;20033;-71
2022/07/31 02:36:59;;;;;;;4.45;1.90;;;;;;;;;;5035373;28;20083;-71
2022/07/31 02:39:25;;;;;;;3.22;1.80;;;;;;;;;;5031312;28;20503;-71
2022/07/31 02:41:51;;;;;;;5.00;2.00;;;;;;;;;;5035914;28;20018;-71
2022/07/31 02:44:17;;;;;;;3.80;2.00;;;;;;;;;;5035426;28;20041;-71
2022/07/31 02:46:43;;;;;;;3.40;1.55;;;;;;;;;;5034937;28;20548;-71
2022/07/31 02:49:10;;;;;;;5.18;1.70;;;;;;;;;;5035366;28;20017;-71
2022/07/31 02:51:36;;;;;;;4.32;1.60;;;;;;;;;;5035471;28;20037;-71
2022/07/31 02:54:01;;;;;;;6.50;1.60;;;;;;;;;;5033936;28;20025;-71
2022/07/31 02:56:29;;;;;;;6.03;2.00;;;;;;;;;;5034753;28;20036;-71
2022/07/31 02:58:54;;;;;;;5.22;1.90;;;;;;;;;;5034903;28;20040;-70
2022/07/31 03:01:20;;;;;;;2.53;1.40;;;;;;;;;;5034961;28;20033;-71
2022/07/31 03:03:45;;;;;;;6.57;2.00;;;;;;;;;;5034691;28;20033;-71
2022/07/31 03:06:10;;;;;;;10.80;2.25;;;;;;;;;;5035067;28;20033;-71
2022/07/31 03:08:36;;;;;;;6.63;1.70;;;;;;;;;;5034640;28;20035;-71
2022/07/31 03:11:01;;;;;;;6.35;2.00;;;;;;;;;;5014019;28;20034;-71
2022/07/31 03:13:28;;;;;;;5.22;1.95;;;;;;;;;;5035124;28;20456;-72
2022/07/31 03:15:54;;;;;;;6.50;2.47;;;;;;;;;;5034631;28;20507;-71
2022/07/31 03:18:20;;;;;;;6.72;2.00;;;;;;;;;;5033756;28;20014;-71
2022/07/31 03:20:50;;;;;;;8.45;2.53;;;;;;;;;;5034759;28;20040;-71
2022/07/31 03:23:15;;;;;;;8.23;2.50;;;;;;;;;;5034653;28;20139;-71
2022/07/31 03:25:41;;;;;;;10.05;2.10;;;;;;;;;;5034545;28;20473;-71
2022/07/31 03:28:07;;;;;;;3.95;2.05;;;;;;;;;;5034816;28;20078;-71
2022/07/31 03:30:34;;;;;;;6.70;2.42;;;;;;;;;;5016717;28;20373;-71
2022/07/31 03:33:01;;;;;;;5.68;2.30;;;;;;;;;;5034704;28;20095;-71
2022/07/31 03:35:27;;;;;;;6.20;2.33;;;;;;;;;;5034354;28;20048;-71
2022/07/31 03:37:52;;;;;;;5.65;2.40;;;;;;;;;;5032894;28;20381;-71
2022/07/31 03:40:18;;;;;;;8.88;2.88;;;;;;;;;;5034233;28;20022;-71
2022/07/31 03:42:43;;;;;;;8.48;2.92;;;;;;;;;;5034941;28;20029;-71
2022/07/31 03:45:10;;;;;;;7.85;2.40;;;;;;;;;;5027490;28;20429;-71
2022/07/31 03:47:36;;;;;;;11.32;3.20;;;;;;;;;;5034726;28;20018;-71
2022/07/31 03:50:02;;;;;;;9.10;2.72;;;;;;;;;;5028299;28;20109;-71
2022/07/31 03:52:28;;;;;;;6.63;2.53;;;;;;;;;;5028782;28;20033;-71
2022/07/31 03:54:53;;;;;;;5.85;2.72;;;;;;;;;;5031249;28;20539;-71
2022/07/31 03:57:19;;;;;;;9.18;2.97;;;;;;;;;;5030271;28;20037;-71
2022/07/31 03:59:45;;;;;;;4.80;2.75;;;;;;;;;;5031136;28;20048;-71
2022/07/31 04:02:10;;;;;;;3.88;2.03;;;;;;;;;;5031695;28;20017;-71
2022/07/31 04:04:35;;;;;;;6.05;2.42;;;;;;;;;;5033231;28;20049;-71
2022/07/31 04:07:01;;;;;;;4.97;2.30;;;;;;;;;;5034761;28;20033;-71
2022/07/31 04:09:26;;;;;;;6.00;2.22;;;;;;;;;;5032662;28;20061;-71
2022/07/31 04:11:51;;;;;;;5.10;2.30;;;;;;;;;;5034271;28;20076;-71
2022/07/31 04:14:17;;;;;;;5.32;2.22;;;;;;;;;;5033288;28;20040;-71
2022/07/31 04:16:42;;;;;;;6.75;2.35;;;;;;;;;;5033393;28;20060;-72
2022/07/31 04:19:07;;;;;;;8.55;2.30;;;;;;;;;;5031781;28;20021;-71
2022/07/31 04:21:32;;;;;;;7.50;2.10;;;;;;;;;;5033952;28;20036;-71
2022/07/31 04:23:58;;;;;;;7.78;2.60;;;;;;;;;;5033715;28;20017;-71
2022/07/31 04:26:23;;;;;;;5.90;1.70;;;;;;;;;;5033655;28;20044;-71
2022/07/31 04:28:49;;;;;;;4.95;1.80;;;;;;;;;;5033488;28;20030;-71
2022/07/31 04:31:14;;;;;;;6.30;1.65;;;;;;;;;;5031071;28;20025;-71
2022/07/31 04:33:39;;;;;;;6.43;1.98;;;;;;;;;;5033760;28;20021;-70
2022/07/31 04:36:05;;;;;;;6.90;1.80;;;;;;;;;;5029966;28;20061;-71
2022/07/31 04:38:30;;;;;;;7.60;1.52;;;;;;;;;;5015496;28;20029;-71
2022/07/31 04:40:55;;;;;;;5.30;1.42;;;;;;;;;;5031959;28;20483;-71
2022/07/31 04:43:21;;;;;;;2.92;1.35;;;;;;;;;;5033268;28;20079;-71
2022/07/31 04:45:46;;;;;;;3.42;1.30;;;;;;;;;;5033321;28;20460;-71
2022/07/31 04:48:11;;;;;;;4.72;1.63;;;;;;;;;;5031091;28;20017;-71
2022/07/31 04:50:36;;;;;;;2.75;1.45;;;;;;;;;;5032525;28;20533;-71
2022/07/31 04:53:02;;;;;;;4.97;1.55;;;;;;;;;;5033427;28;20017;-71
2022/07/31 04:55:27;;;;;;;2.03;1.10;;;;;;;;;;5033049;28;20385;-71
2022/07/31 04:57:53;;;;;;;3.53;1.35;;;;;;;;;;5033054;28;20465;-71
2022/07/31 05:00:18;;;;;;;3.20;1.10;;;;;;;;;;5032588;28;20056;-71
2022/07/31 05:02:43;;;;;;;4.28;1.50;;;;;;;;;;5032949;28;20028;-71
2022/07/31 05:05:08;;;;;;;2.80;1.15;;;;;;;;;;5032178;28;20036;-71
2022/07/31 05:07:34;;;;;;;3.03;1.17;;;;;;;;;;5028583;28;20096;-71
2022/07/31 05:09:59;;;;;;;3.85;1.20;;;;;;;;;;5031621;28;20026;-71
2022/07/31 05:12:25;;;;;;;4.78;1.45;;;;;;;;;;5038227;28;20601;-71
2022/07/31 05:14:50;;;;;;;4.72;1.50;;;;;;;;;;5031876;28;20049;-71
2022/07/31 05:17:16;;;;;;;3.15;1.20;;;;;;;;;;5032793;28;20101;-71
2022/07/31 05:19:41;;;;;;;1.95;1.00;;;;;;;;;;5028620;28;20124;-71
2022/07/31 05:22:06;;;;;;;4.38;1.40;;;;;;;;;;5024436;28;20029;-71
2022/07/31 05:24:31;;;;;;;3.35;1.50;;;;;;;;;;5032554;28;20033;-71
2022/07/31 05:26:57;;;;;;;5.47;1.23;;;;;;;;;;5028581;28;20045;-72
2022/07/31 05:29:22;;;;;;;3.95;0.90;;;;;;;;;;5026012;28;20476;-71
2022/07/31 05:31:47;;;;;;;2.47;1.20;;;;;;;;;;5029365;28;20038;-71
2022/07/31 05:34:13;;;;;;;2.05;0.95;;;;;;;;;;5032751;28;20079;-71
2022/07/31 05:36:38;;;;;;;2.42;1.00;;;;;;;;;;5032790;28;20029;-71
2022/07/31 05:39:03;;;;;;;1.45;0.85;;;;;;;;;;5032644;28;20378;-71
2022/07/31 05:41:32;;;;;;;1.60;0.85;;;;;;;;;;5028750;28;20034;-71
2022/07/31 05:43:57;;;;;;;1.83;0.80;;;;;;;;;;5028940;28;20029;-72
2022/07/31 05:46:22;;;;;;;1.48;0.73;;;;;;;;;;5032249;28;20032;-71
2022/07/31 05:48:47;;;;;;;2.78;0.90;;;;;;;;;;5027766;28;20060;-71
2022/07/31 05:51:13;;;;;;;1.58;0.73;;;;;;;;;;5026566;28;20025;-71
2022/07/31 05:53:39;;;;;;;1.38;0.70;;;;;;;;;;5032529;28;20373;-72
2022/07/31 05:56:05;;;;;;;2.40;0.98;;;;;;;;;;5028112;28;20041;-72
2022/07/31 05:58:30;;;;;;;2.13;0.90;;;;;;;;;;5032512;28;20479;-71
2022/07/31 06:00:55;;;;;;;2.58;0.88;;;;;;;;;;5027640;28;20889;-72
2022/07/31 06:03:21;;;;;;;4.88;1.02;;;;;;;;;;5037019;28;20120;-71
2022/07/31 06:05:47;;;;;;;2.90;1.10;;;;;;;;;;5035751;28;20025;-71
2022/07/31 06:08:12;;;;;;;3.53;0.98;;;;;;;;;;5036014;28;20025;-72
2022/07/31 06:10:37;;;;;;;2.28;1.00;;;;;;;;;;5036527;28;20467;-71
2022/07/31 06:13:03;;;;;;;1.85;1.00;;;;;;;;;;5035820;28;20021;-71
2022/07/31 06:15:28;;;;;;;2.15;1.10;;;;;;;;;;5033094;28;20047;-71
2022/07/31 06:17:54;;;;;;;2.75;1.10;;;;;;;;;;5031687;28;20491;-71
2022/07/31 06:20:19;;;;;;;1.45;1.00;;;;;;;;;;5018026;28;20063;-71
2022/07/31 06:22:44;;;;;;;2.17;1.10;;;;;;;;;;5036298;28;20045;-71
2022/07/31 06:25:10;;;;;;;2.03;0.85;;;;;;;;;;5035244;28;20037;-71
2022/07/31 06:27:36;;;;;;;2.20;0.90;;;;;;;;;;5033737;28;20032;-71
2022/07/31 06:30:04;;;;;;;2.30;1.00;;;;;;;;;;5028340;28;20022;-71
2022/07/31 06:32:30;;;;;;;1.38;0.88;;;;;;;;;;5036179;28;20030;-71
2022/07/31 06:34:55;;;;;;;1.77;0.90;;;;;;;;;;5033477;28;20036;-71
2022/07/31 06:37:20;;;;;;;2.60;1.00;;;;;;;;;;5035046;28;20037;-71
2022/07/31 06:39:45;;;;;;;2.85;1.00;;;;;;;;;;5033291;28;20373;-71
2022/07/31 06:42:16;;;;;;;1.83;0.90;;;;;;;;;;5032527;28;20021;-71
2022/07/31 06:44:42;;;;;;;2.03;0.90;;;;;;;;;;5035144;28;20037;-71
2022/07/31 06:47:07;;;;;;;2.13;1.00;;;;;;;;;;5035268;28;20448;-71
2022/07/31 06:49:32;;;;;;;1.50;0.90;;;;;;;;;;5035721;28;20021;-71
2022/07/31 06:51:57;;;;;;;2.50;0.88;;;;;;;;;;5035634;28;20028;-72
2022/07/31 06:54:23;;;;;;;4.35;1.00;;;;;;;;;;5034736;28;20084;-71
2022/07/31 06:56:48;;;;;;;4.60;0.90;;;;;;;;;;5035873;28;20053;-72
2022/07/31 06:59:13;;;;;;;1.50;0.90;;;;;;;;;;5031474;28;20040;-71
2022/07/31 07:01:39;;;;;;;1.63;0.90;;;;;;;;;;5029478;28;20037;-72
2022/07/31 07:04:04;;;;;;;1.30;0.73;;;;;;;;;;5035146;28;20040;-71
2022/07/31 07:06:30;;;;;;;1.85;0.70;;;;;;;;;;5035217;28;20025;-72
2022/07/31 07:08:55;;;;;;;1.33;0.80;;;;;;;;;;5034204;28;20057;-71
2022/07/31 07:11:20;;;;;;;1.80;0.80;;;;;;;;;;5041633;28;20017;-71
2022/07/31 07:13:46;;;;;;;1.25;0.80;;;;;;;;;;5034707;28;20049;-71
2022/07/31 07:16:12;;;;;;;2.88;0.70;;;;;;;;;;5035117;28;20136;-71
2022/07/31 07:18:38;;;;;;;1.27;0.70;;;;;;;;;;5035011;28;20477;-71
2022/07/31 07:21:03;;;;;;;1.40;0.80;;;;;;;;;;5034725;28;20030;-70
2022/07/31 07:23:29;;;;;;;7.47;1.20;;;;;;;;;;5035044;28;20029;-71
2022/07/31 07:25:54;;;;;;;2.40;1.15;;;;;;;;;;5034759;28;20071;-70
2022/07/31 07:28:19;;;;;;;2.63;1.30;;;;;;;;;;5035360;28;20040;-71
2022/07/31 07:30:44;;;;;;;3.28;1.13;;;;;;;;;;5034714;28;20030;-71
2022/07/31 07:33:10;;;;;;;1.70;0.90;;;;;;;;;;5024078;28;20021;-71
2022/07/31 07:35:35;;;;;;;2.05;1.00;;;;;;;;;;5033059;28;20034;-71
2022/07/31 07:38:01;;;;;;;2.63;0.90;;;;;;;;;;5034343;28;20079;-71
2022/07/31 07:40:27;;;;;;;2.63;0.88;;;;;;;;;;5033367;28;20057;-71
2022/07/31 07:42:52;;;;;;;2.30;0.90;;;;;;;;;;5034539;28;20037;-71
2022/07/31 07:45:17;;;;;;;2.63;0.90;;;;;;;;;;5032576;28;20404;-71
2022/07/31 07:47:43;;;;;;;3.35;0.90;;;;;;;;;;5032716;28;20052;-71
2022/07/31 07:50:09;;;;;;;2.25;1.00;;;;;;;;;;5033345;28;20060;-71
2022/07/31 07:52:35;;;;;;;2.38;0.90;;;;;;;;;;5035046;28;20502;-71
2022/07/31 07:55:00;;;;;;;1.38;0.80;;;;;;;;;;5032847;28;20029;-71
2022/07/31 07:57:26;;;;;;;2.58;0.85;;;;;;;;;;5028101;28;20540;-71
2022/07/31 07:59:51;;;;;;;3.70;0.95;;;;;;;;;;5031786;28;20112;-71
2022/07/31 08:02:16;;;;;;;1.50;0.90;;;;;;;;;;5027190;28;20358;-70
2022/07/31 08:04:42;;;;;;;1.30;0.77;;;;;;;;;;5030112;28;20033;-71
2022/07/31 08:07:07;;;;;;;1.40;0.80;;;;;;;;;;5031454;28;20381;-71
2022/07/31 08:09:33;;;;;;;1.60;0.70;;;;;;;;;;5033680;28;20026;-71
2022/07/31 08:11:59;;;;;;;1.20;0.73;;;;;;;;;;5037860;28;20025;-70
2022/07/31 08:14:24;;;;;;;1.02;0.60;;;;;;;;;;5013226;28;21107;-71
2022/07/31 08:16:49;;;;;;;4.82;0.80;;;;;;;;;;5033833;28;20017;-70
2022/07/31 08:19:15;;;;;;;1.52;0.70;;;;;;;;;;5034702;28;20026;-71
2022/07/31 08:21:40;;;;;;;1.17;0.70;;;;;;;;;;5034120;28;20087;-71
2022/07/31 08:24:06;;;;;;;1.17;0.70;;;;;;;;;;5033478;28;20101;-71
2022/07/31 08:27:22;;;;;;;1.30;0.70;;;;;;;;;;5034100;28;20021;-71
2022/07/31 08:29:17;;;;;;;1.20;0.70;;;;;;;;;;5028883;28;20041;-71
2022/07/31 08:31:42;;;;;;;0.88;0.60;;;;;;;;;;5032606;28;20116;-71
2022/07/31 08:34:07;;;;;;;5.57;0.70;;;;;;;;;;5033936;28;20480;-71
2022/07/31 08:36:33;;;;;;;2.80;0.70;;;;;;;;;;5033666;28;20362;-71
2022/07/31 08:38:58;;;;;;;1.20;0.60;;;;;;;;;;5028930;28;20049;-71
2022/07/31 08:41:24;;;;;;;1.58;0.60;;;;;;;;;;5032664;28;20473;-71
2022/07/31 08:43:49;;;;;;;1.33;0.63;;;;;;;;;;5033569;28;20431;-71
2022/07/31 08:46:14;;;;;;;0.88;0.55;;;;;;;;;;5031634;28;20075;-71
2022/07/31 08:48:40;;;;;;;1.42;0.70;;;;;;;;;;5026429;28;20082;-71
2022/07/31 08:51:09;;;;;;;0.60;0.50;;;;;;;;;;5033358;28;20042;-71
2022/07/31 08:53:35;;;;;;;0.60;0.50;;;;;;;;;;5033617;28;20112;-71
2022/07/31 08:56:01;;;;;;;1.10;0.65;;;;;;;;;;5032896;28;20048;-71
2022/07/31 08:58:26;;;;;;;0.52;0.52;;;;;;;;;;5033147;28;20091;-71
2022/07/31 09:00:52;;;;;;;1.48;0.60;;;;;;;;;;5032358;28;20033;-71
2022/07/31 09:03:17;;;;;;;0.60;0.50;;;;;;;;;;5033631;28;20059;-71
2022/07/31 09:05:42;;;;;;;1.70;0.47;;;;;;;;;;5028654;28;20026;-71
2022/07/31 09:08:07;;;;;;;2.65;0.40;;;;;;;;;;5030859;28;20100;-71
2022/07/31 09:10:33;;;;;;;0.43;0.40;;;;;;;;;;5033359;28;20044;-71
2022/07/31 09:12:58;;;;;;;3.33;0.50;;;;;;;;;;5033205;28;20017;-71
2022/07/31 09:15:23;;;;;;;0.70;0.50;;;;;;;;;;5032408;28;20049;-71
2022/07/31 09:17:49;;;;;;;0.45;0.40;;;;;;;;;;5033100;28;20034;-71
2022/07/31 09:20:22;;;;;;;0.57;0.40;;;;;;;;;;5033038;28;20135;-71
2022/07/31 09:22:52;;;;;;;0.88;0.50;;;;;;;;;;5031240;28;20052;-71
2022/07/31 09:25:18;;;;;;;0.40;0.40;;;;;;;;;;5020257;28;20030;-71
2022/07/31 09:27:44;;;;;;;1.65;0.50;;;;;;;;;;5030297;28;20057;-71
2022/07/31 09:30:09;;;;;;;0.50;0.40;;;;;;;;;;5032272;28;20534;-71
2022/07/31 09:32:35;;;;;;;0.43;0.43;;;;;;;;;;5033093;28;20037;-71
2022/07/31 09:35:07;;;;;;;2.60;0.50;;;;;;;;;;5032140;28;20029;-71
2022/07/31 09:37:33;;;;;;;3.13;0.50;;;;;;;;;;5015056;28;20553;-71
2022/07/31 09:39:59;;;;;;;0.73;0.50;;;;;;;;;;5032862;28;20116;-71
2022/07/31 09:42:34;;;;;;;0.40;0.40;;;;;;;;;;5042688;28;20461;-71
2022/07/31 09:44:59;;;;;;;0.30;0.30;;;;;;;;;;5030309;28;20033;-71
2022/07/31 09:47:28;;;;;;;2.67;0.50;;;;;;;;;;5027702;28;20096;-71
2022/07/31 09:49:57;;;;;;;0.30;0.30;;;;;;;;;;5031696;28;20017;-71
2022/07/31 09:52:22;;;;;;;0.85;0.50;;;;;;;;;;5027589;28;20084;-71
2022/07/31 09:54:59;;;;;;;0.40;0.40;;;;;;;;;;5027024;28;20034;-71
2022/07/31 09:57:24;;;;;;;0.38;0.38;;;;;;;;;;5026863;28;20112;-71
2022/07/31 09:59:50;;;;;;;1.75;0.50;;;;;;;;;;5032733;28;20528;-71
2022/07/31 10:02:17;;;;;;;0.40;0.40;;;;;;;;;;5032644;28;20075;-71
2022/07/31 10:04:43;;;;;;;3.25;0.50;;;;;;;;;;5032211;28;20025;-71
2022/07/31 10:07:09;;;;;;;2.08;0.50;;;;;;;;;;5032389;28;20026;-71
2022/07/31 10:09:37;;;;;;;3.13;0.40;;;;;;;;;;5031886;28;20040;-71
2022/07/31 10:12:03;;;;;;;0.45;0.45;;;;;;;;;;5029304;28;20025;-71
2022/07/31 10:14:30;;;;;;;0.77;0.50;;;;;;;;;;5027131;28;20072;-71
2022/07/31 10:16:57;;;;;;;2.97;0.60;;;;;;;;;;5023825;28;20025;-71
2022/07/31 10:19:24;;;;;;;0.93;0.50;;;;;;;;;;5031727;28;20030;-71
2022/07/31 10:21:53;;;;;;;0.82;0.55;;;;;;;;;;5031714;28;20073;-71
2022/07/31 10:24:19;;;;;;;0.75;0.50;;;;;;;;;;5027730;28;20112;-71
2022/07/31 10:26:44;;;;;;;1.65;0.50;;;;;;;;;;5032140;28;20026;-71
2022/07/31 10:29:10;;;;;;;0.40;0.40;;;;;;;;;;5032140;28;20037;-71
2022/07/31 10:31:36;;;;;;;2.53;0.55;;;;;;;;;;5032398;28;20032;-71
2022/07/31 10:34:02;;;;;;;0.63;0.50;;;;;;;;;;5032513;28;20055;-71
2022/07/31 10:36:29;;;;;;;0.60;0.60;;;;;;;;;;5031934;28;20048;-71
2022/07/31 10:39:00;;;;;;;2.40;0.60;;;;;;;;;;5031104;28;20087;-71
2022/07/31 10:41:33;;;;;;;2.00;0.57;;;;;;;;;;5030624;28;20451;-71
2022/07/31 10:44:02;;;;;;;0.60;0.40;;;;;;;;;;5031583;28;20440;-71
2022/07/31 10:46:28;;;;;;;1.42;0.70;;;;;;;;;;5028602;28;20030;-71
2022/07/31 10:48:54;;;;;;;3.40;0.50;;;;;;;;;;5029236;28;20029;-71
2022/07/31 10:51:21;;;;;;;0.68;0.50;;;;;;;;;;5035491;28;20025;-71
2022/07/31 10:53:53;;;;;;;0.77;0.50;;;;;;;;;;5034625;28;20473;-71
2022/07/31 10:56:18;;;;;;;1.58;0.60;;;;;;;;;;5035258;28;20046;-71
2022/07/31 10:58:48;;;;;;;1.05;0.70;;;;;;;;;;5035358;28;20376;-71
2022/07/31 11:01:13;;;;;;;0.98;0.70;;;;;;;;;;5034556;28;20025;-71
2022/07/31 11:03:40;;;;;;;1.00;0.63;;;;;;;;;;5007745;28;20033;-71
2022/07/31 11:06:06;;;;;;;1.15;0.70;;;;;;;;;;5014289;28;20420;-71
2022/07/31 11:08:44;;;;;;;3.53;0.70;;;;;;;;;;5035107;28;20144;-71
2022/07/31 11:11:10;;;;;;;0.73;0.50;;;;;;;;;;5029221;28;20424;-71
2022/07/31 11:13:49;;;;;;;1.13;0.60;;;;;;;;;;5028627;28;20037;-71
2022/07/31 11:16:15;;;;;;;1.52;0.70;;;;;;;;;;5026772;28;20095;-70
2022/07/31 11:18:40;;;;;;;0.65;0.50;;;;;;;;;;5035037;28;20049;-71
2022/07/31 11:21:06;;;;;;;2.58;0.80;;;;;;;;;;5031241;28;20124;-71
2022/07/31 11:23:32;;;;;;;0.98;0.55;;;;;;;;;;5033342;28;20021;-71
2022/07/31 11:25:58;;;;;;;1.15;0.70;;;;;;;;;;5034212;28;20029;-71
2022/07/31 11:28:24;;;;;;;2.38;0.77;;;;;;;;;;5031963;28;20029;-71
2022/07/31 11:30:56;;;;;;;1.52;0.70;;;;;;;;;;5015718;28;20028;-71
2022/07/31 11:33:31;;;;;;;1.23;0.70;;;;;;;;;;5032445;28;20029;-72
2022/07/31 11:36:03;;;;;;;2.97;0.80;;;;;;;;;;5034502;28;20065;-71
2022/07/31 11:38:28;;;;;;;1.03;0.63;;;;;;;;;;5034356;28;20032;-71
2022/07/31 11:40:54;;;;;;;0.77;0.60;;;;;;;;;;5033069;28;20246;-71
2022/07/31 11:43:19;;;;;;;2.08;0.90;;;;;;;;;;5034309;28;20060;-71
2022/07/31 11:45:45;;;;;;;1.73;0.65;;;;;;;;;;5034878;28;20018;-71
2022/07/31 11:48:13;;;;;;;1.00;0.70;;;;;;;;;;5034407;28;20033;-71
2022/07/31 11:50:39;;;;;;;0.80;0.60;;;;;;;;;;5030264;28;20105;-71
2022/07/31 11:53:05;;;;;;;1.65;0.70;;;;;;;;;;5028046;28;20469;-71
2022/07/31 11:55:31;;;;;;;1.40;0.70;;;;;;;;;;5033838;28;20053;-72
2022/07/31 11:57:56;;;;;;;1.80;0.80;;;;;;;;;;5031257;28;20029;-71
2022/07/31 12:00:22;;;;;;;3.30;0.90;;;;;;;;;;5029037;28;20428;-71
2022/07/31 12:02:47;;;;;;;1.73;0.82;;;;;;;;;;5034142;28;20040;-71
2022/07/31 12:05:13;;;;;;;2.83;1.08;;;;;;;;;;5032810;28;20408;-71
2022/07/31 12:07:42;;;;;;;1.48;0.85;;;;;;;;;;5030692;28;20053;-71
2022/07/31 12:10:11;;;;;;;1.40;0.80;;;;;;;;;;5033482;28;20048;-72
2022/07/31 12:12:37;;;;;;;2.03;0.73;;;;;;;;;;5039600;28;20029;-71
2022/07/31 12:15:11;;;;;;;1.00;0.63;;;;;;;;;;5032660;28;20095;-71
2022/07/31 12:17:37;;;;;;;1.23;0.70;;;;;;;;;;5033540;28;20536;-71
2022/07/31 12:20:06;;;;;;;1.02;0.70;;;;;;;;;;5033978;28;20056;-71
2022/07/31 12:22:31;;;;;;;1.33;0.70;;;;;;;;;;5032386;28;20030;-71
2022/07/31 12:25:00;;;;;;;1.52;0.80;;;;;;;;;;5034025;28;20044;-71
2022/07/31 12:27:25;;;;;;;1.00;0.70;;;;;;;;;;5033950;28;20079;-71
2022/07/31 12:29:51;;;;;;;2.65;0.65;;;;;;;;;;5034008;28;20481;-71
2022/07/31 12:32:27;;;;;;;2.53;0.80;;;;;;;;;;5033587;28;20053;-71
2022/07/31 12:35:01;;;;;;;1.50;0.75;;;;;;;;;;5033428;28;20483;-71
2022/07/31 12:37:26;;;;;;;0.82;0.60;;;;;;;;;;5032670;28;20034;-71
2022/07/31 12:39:52;;;;;;;1.20;0.75;;;;;;;;;;5033825;28;20020;-71
2022/07/31 12:42:21;;;;;;;0.85;0.60;;;;;;;;;;5033690;28;20385;-71
2022/07/31 12:44:51;;;;;;;1.17;0.77;;;;;;;;;;5028595;28;20461;-71
2022/07/31 12:47:23;;;;;;;1.45;0.80;;;;;;;;;;5033679;28;20067;-71
2022/07/31 12:49:48;;;;;;;0.90;0.60;;;;;;;;;;5029580;28;20018;-71
2022/07/31 12:52:14;;;;;;;0.90;0.70;;;;;;;;;;5033481;28;20041;-71
2022/07/31 12:54:39;;;;;;;0.98;0.60;;;;;;;;;;5033608;28;20472;-71
2022/07/31 12:57:05;;;;;;;1.10;0.70;;;;;;;;;;5033727;28;20030;-71
2022/07/31 12:59:30;;;;;;;1.40;0.70;;;;;;;;;;5033489;28;20473;-71
2022/07/31 13:01:55;;;;;;;1.30;0.70;;;;;;;;;;5015749;28;20017;-71
2022/07/31 13:04:21;;;;;;;0.95;0.65;;;;;;;;;;5033580;28;20473;-71
2022/07/31 13:06:47;;;;;;;1.27;0.75;;;;;;;;;;5033632;28;20026;-71
2022/07/31 13:09:12;;;;;;;1.13;0.73;;;;;;;;;;5033434;28;20014;-71
2022/07/31 13:11:38;;;;;;;1.63;0.75;;;;;;;;;;5033046;28;20036;-71
2022/07/31 13:14:03;;;;;;;1.48;0.90;;;;;;;;;;5033725;28;20460;-71
2022/07/31 13:16:28;;;;;;;2.28;0.90;;;;;;;;;;5033562;28;20057;-71
2022/07/31 13:18:54;;;;;;;6.10;1.40;;;;;;;;;;5033183;28;20036;-71
2022/07/31 13:21:19;;;;;;;9.77;1.80;;;;;;;;;;5033283;28;20037;-71
2022/07/31 13:23:44;;;;;;;4.55;1.50;;;;;;;;;;5033119;28;20030;-71
2022/07/31 13:26:10;;;;;;;8.38;1.55;;;;;;;;;;5033259;28;20025;-71
2022/07/31 13:28:35;;;;;;;4.75;1.27;;;;;;;;;;5033087;28;20038;-71
2022/07/31 13:31:00;;;;;;;1.83;0.88;;;;;;;;;;5033228;28;20070;-71
2022/07/31 13:33:26;;;;;;;2.67;1.08;;;;;;;;;;5030775;28;20381;-71
2022/07/31 13:35:51;;;;;;;3.28;1.10;;;;;;;;;;5033064;28;20029;-71
2022/07/31 13:38:16;;;;;;;3.13;1.23;;;;;;;;;;5032660;28;20376;-71
2022/07/31 13:43:25;;;;;;;1.95;0.88;;;;;;;;;;5022604;28;20060;-71
2022/07/31 13:45:51;;;;;;;2.03;0.90;;;;;;;;;;5033210;28;20029;-71
2022/07/31 13:48:16;;;;;;;2.80;1.17;;;;;;;;;;5032950;28;20033;-71
2022/07/31 13:50:41;;;;;;;1.33;0.80;;;;;;;;;;5032710;28;20476;-71
2022/07/31 13:53:07;;;;;;;4.00;1.35;;;;;;;;;;5032513;28;20028;-71
2022/07/31 13:55:33;;;;;;;3.25;1.40;;;;;;;;;;5032897;28;20045;-71
2022/07/31 13:57:58;;;;;;;2.90;1.35;;;;;;;;;;5032718;28;20068;-71
2022/07/31 14:00:23;;;;;;;4.47;1.60;;;;;;;;;;5032771;28;20029;-71
2022/07/31 14:02:49;;;;;;;4.07;2.10;;;;;;;;;;5029707;28;20396;-71
2022/07/31 14:05:17;;;;;;;3.95;1.88;;;;;;;;;;5032736;28;20021;-71
2022/07/31 14:07:42;;;;;;;5.00;1.70;;;;;;;;;;5032906;28;20071;-71
2022/07/31 14:10:07;;;;;;;5.35;2.00;;;;;;;;;;5032613;28;20025;-71
2022/07/31 14:12:33;;;;;;;5.15;2.10;;;;;;;;;;5033076;28;20014;-71
2022/07/31 14:14:58;;;;;;;4.35;2.10;;;;;;;;;;5032548;28;20060;-71
2022/07/31 14:17:23;;;;;;;4.22;2.20;;;;;;;;;;5032718;28;20504;-71
2022/07/31 14:19:49;;;;;;;4.28;2.55;;;;;;;;;;5028504;28;20029;-71
2022/07/31 14:22:14;;;;;;;3.30;1.40;;;;;;;;;;5032741;28;20389;-71
2022/07/31 14:24:40;;;;;;;6.55;2.60;;;;;;;;;;5035066;28;20108;-71
2022/07/31 14:27:05;;;;;;;5.78;2.65;;;;;;;;;;5034145;28;20034;-71
2022/07/31 14:29:31;;;;;;;3.13;1.80;;;;;;;;;;5036317;28;20033;-71
2022/07/31 14:31:56;;;;;;;4.78;1.85;;;;;;;;;;5035905;28;20036;-71
2022/07/31 14:34:21;;;;;;;3.38;1.40;;;;;;;;;;5036307;28;20025;-71
2022/07/31 14:36:46;;;;;;;6.00;1.52;;;;;;;;;;5035842;28;20388;-71
2022/07/31 14:39:12;;;;;;;2.72;1.30;;;;;;;;;;5035907;28;20038;-71